Time;durP1;ratioP1;P1;durP2;ratioP2;P2;SDS_P1;SDS_P2;PMS_P1;PMS_P2;Temp;Humidity;BMP_temperature;BMP_pressure;BME280_temperature;BME280_humidity;BME280_pressure;Samples;Min_cycle;Max_cycle;Signal;HPM_P1;HPM_P2
2023/07/23 00:00:50;;;;;;;12.05;5.22;;;;;;;19.73;72.13;99997.13;8355839;28;20045;-66
2023/07/23 00:04:51;;;;;;;13.90;4.13;;;;;;;19.69;71.84;99991.22;8360595;28;20076;-66
2023/07/23 00:08:52;;;;;;;8.50;3.85;;;;;;;19.69;70.77;99995.84;8360800;28;20047;-66
2023/07/23 00:12:52;;;;;;;5.95;3.78;;;;;;;19.65;70.13;99978.13;8361409;28;20077;-66
2023/07/23 00:16:52;;;;;;;5.50;3.38;;;;;;;19.63;70.17;99980.25;8360320;28;20575;-66
2023/07/23 00:20:53;;;;;;;5.53;3.72;;;;;;;19.54;70.87;99971.38;8360046;28;20102;-66
2023/07/23 00:24:56;;;;;;;9.18;3.88;;;;;;;19.55;70.96;99961.28;8358939;28;20041;-67
2023/07/23 00:28:57;;;;;;;6.57;3.97;;;;;;;19.54;70.95;99960.41;8358256;28;20042;-66
2023/07/23 00:32:57;;;;;;;8.75;3.53;;;;;;;19.56;70.56;99951.97;8359071;28;20041;-66
2023/07/23 00:36:58;;;;;;;6.05;3.90;;;;;;;19.54;70.38;99951.38;8362010;28;20495;-66
2023/07/23 00:40:58;;;;;;;6.05;3.60;;;;;;;19.44;71.19;99954.53;8359729;28;20411;-66
2023/07/23 00:44:59;;;;;;;5.55;3.35;;;;;;;19.38;71.70;99944.41;8355372;28;20041;-66
2023/07/23 00:49:01;;;;;;;9.63;3.20;;;;;;;19.32;72.04;99935.13;8360028;28;20044;-67
2023/07/23 00:53:02;;;;;;;7.35;3.50;;;;;;;19.37;71.62;99931.75;8357543;28;20064;-66
2023/07/23 00:57:05;;;;;;;5.85;3.67;;;;;;;19.33;71.65;99930.47;8352815;28;20041;-66
2023/07/23 01:01:08;;;;;;;5.97;4.20;;;;;;;19.31;71.81;99927.94;8352674;28;20036;-66
2023/07/23 01:05:09;;;;;;;5.78;3.22;;;;;;;19.29;71.66;99921.84;8357377;28;20071;-67
2023/07/23 01:09:12;;;;;;;7.63;3.47;;;;;;;19.25;71.42;99912.31;8357523;28;20036;-67
2023/07/23 01:13:12;;;;;;;8.75;3.97;;;;;;;19.21;71.59;99912.94;8357355;28;20029;-67
2023/07/23 01:17:16;;;;;;;4.72;3.63;;;;;;;19.23;71.63;99908.94;8355559;28;20041;-68
2023/07/23 01:21:17;;;;;;;7.53;3.45;;;;;;;19.26;70.69;99904.94;8356264;28;20048;-67
2023/07/23 01:25:17;;;;;;;6.72;3.45;;;;;;;19.24;70.67;99888.69;8357921;28;20072;-67
2023/07/23 01:29:18;;;;;;;6.80;3.63;;;;;;;19.29;69.99;99891.69;8358367;28;20039;-67
2023/07/23 01:33:19;;;;;;;4.40;3.38;;;;;;;19.22;70.30;99885.31;8357267;28;20033;-67
2023/07/23 01:37:20;;;;;;;5.45;3.38;;;;;;;19.26;69.80;99872.94;8356737;28;20505;-67
2023/07/23 01:41:21;;;;;;;5.43;3.65;;;;;;;19.24;70.05;99876.88;8355655;28;20399;-67
2023/07/23 01:45:21;;;;;;;5.85;3.53;;;;;;;19.25;69.82;99868.44;8358083;28;20059;-67
2023/07/23 01:49:22;;;;;;;6.35;3.67;;;;;;;19.22;69.82;99859.81;8357782;28;20035;-67
2023/07/23 01:53:22;;;;;;;6.65;3.17;;;;;;;19.26;69.16;99859.22;8357008;28;20029;-66
2023/07/23 01:57:23;;;;;;;6.07;3.33;;;;;;;19.27;69.38;99844.47;8357415;28;20037;-67
2023/07/23 02:01:23;;;;;;;5.57;3.30;;;;;;;19.26;69.57;99842.78;8355585;28;20028;-67
2023/07/23 02:05:24;;;;;;;6.03;3.65;;;;;;;19.23;69.21;99848.66;8355613;28;20049;-67
2023/07/23 02:09:25;;;;;;;7.35;3.65;;;;;;;19.19;69.58;99841.88;8357181;28;20079;-67
2023/07/23 02:13:27;;;;;;;8.98;3.92;;;;;;;19.21;69.25;99828.81;8355611;28;20580;-67
2023/07/23 02:17:27;;;;;;;4.70;3.25;;;;;;;19.16;69.40;99831.34;8356077;28;20043;-67
2023/07/23 02:21:28;;;;;;;7.68;3.50;;;;;;;19.18;69.60;99822.91;8344314;28;20036;-67
2023/07/23 02:25:28;;;;;;;6.97;3.67;;;;;;;19.14;69.86;99822.53;8339291;28;20107;-68
2023/07/23 02:29:29;;;;;;;6.28;3.22;;;;;;;19.15;69.45;99824.19;8339860;28;20372;-67
2023/07/23 02:33:29;;;;;;;6.40;3.45;;;;;;;19.19;69.34;99817.22;8338510;28;20033;-67
2023/07/23 02:37:30;;;;;;;5.38;3.45;;;;;;;19.21;69.39;99817.88;8338363;28;20033;-68
2023/07/23 02:41:30;;;;;;;6.03;3.47;;;;;;;19.23;69.45;99821.25;8339605;28;20449;-68
2023/07/23 02:45:31;;;;;;;5.47;3.75;;;;;;;19.22;69.73;99808.56;8335000;28;20115;-68
2023/07/23 02:49:31;;;;;;;8.82;4.10;;;;;;;19.23;69.42;99810.28;8342397;28;20045;-68
2023/07/23 02:53:32;;;;;;;5.57;3.38;;;;;;;19.28;69.38;99812.41;8341818;28;20116;-68
2023/07/23 02:57:32;;;;;;;5.70;3.55;;;;;;;19.43;68.59;99813.84;8346390;28;20069;-68
2023/07/23 03:01:33;;;;;;;6.85;3.90;;;;;;;19.65;67.74;99808.94;8342628;28;20037;-68
2023/07/23 03:05:35;;;;;;;4.93;3.08;;;;;;;19.95;66.55;99803.75;8349497;28;20208;-67
2023/07/23 03:09:35;;;;;;;5.20;3.15;;;;;;;20.03;66.06;99811.75;8362046;28;20044;-67
2023/07/23 03:13:36;;;;;;;8.73;3.67;;;;;;;20.04;66.46;99802.44;8361795;28;20033;-68
2023/07/23 03:17:36;;;;;;;5.63;3.63;;;;;;;20.00;66.80;99804.78;8360877;28;20137;-68
2023/07/23 03:21:37;;;;;;;5.50;3.30;;;;;;;20.01;66.83;99802.88;8359535;28;20411;-68
2023/07/23 03:25:37;;;;;;;7.57;3.53;;;;;;;20.07;66.19;99807.50;8361304;28;20072;-68
2023/07/23 03:29:37;;;;;;;11.77;3.58;;;;;;;20.12;66.20;99804.91;8361667;28;20142;-68
2023/07/23 03:33:38;;;;;;;5.25;2.63;;;;;;;20.16;65.90;99808.97;8358761;28;20045;-67
2023/07/23 03:37:38;;;;;;;5.53;2.58;;;;;;;20.17;65.78;99797.78;8361555;28;20116;-68
2023/07/23 03:41:39;;;;;;;4.10;3.20;;;;;;;20.20;65.51;99802.81;8360780;28;20065;-68
2023/07/23 03:45:39;;;;;;;5.25;3.28;;;;;;;20.27;65.37;99797.28;8358167;28;20131;-68
2023/07/23 03:49:41;;;;;;;6.50;2.97;;;;;;;20.27;65.26;99794.53;8357769;28;20492;-68
2023/07/23 03:53:41;;;;;;;6.10;3.00;;;;;;;20.35;65.08;99797.03;8360834;28;20120;-68
2023/07/23 03:57:42;;;;;;;5.22;2.92;;;;;;;20.37;65.03;99786.66;8361385;28;20506;-68
2023/07/23 04:01:43;;;;;;;6.35;2.85;;;;;;;20.37;65.08;99786.66;8357357;28;20048;-68
2023/07/23 04:05:43;;;;;;;6.38;3.03;;;;;;;20.33;65.40;99793.66;8359897;28;20379;-67
2023/07/23 04:09:44;;;;;;;8.50;3.13;;;;;;;20.37;65.41;99792.16;8361308;28;20033;-68
2023/07/23 04:13:44;;;;;;;4.70;2.80;;;;;;;20.41;64.89;99790.66;8362849;28;20072;-68
2023/07/23 04:17:45;;;;;;;3.08;2.47;;;;;;;20.37;65.44;99786.66;8357409;28;20041;-67
2023/07/23 04:21:45;;;;;;;4.07;2.85;;;;;;;20.33;65.65;99791.75;8359827;28;20064;-65
2023/07/23 04:25:46;;;;;;;5.78;2.30;;;;;;;20.27;66.20;99791.78;8356237;28;20045;-65
2023/07/23 04:29:46;;;;;;;5.05;2.50;;;;;;;20.31;65.96;99793.03;8358878;28;20518;-66
2023/07/23 04:33:47;;;;;;;3.78;2.53;;;;;;;20.39;65.84;99795.50;8347127;28;20099;-68
2023/07/23 04:37:47;;;;;;;5.72;3.47;;;;;;;20.29;65.92;99800.66;8360349;28;20171;-67
2023/07/23 04:41:48;;;;;;;6.10;2.60;;;;;;;20.29;65.78;99793.25;8360228;28;20067;-66
2023/07/23 04:45:48;;;;;;;6.80;2.97;;;;;;;20.34;65.97;99804.41;8358326;28;20140;-67
2023/07/23 04:49:49;;;;;;;4.32;2.50;;;;;;;20.36;65.74;99793.19;8358394;28;20041;-67
2023/07/23 04:53:49;;;;;;;5.63;2.55;;;;;;;20.43;65.42;99794.03;8362241;28;20143;-67
2023/07/23 04:57:49;;;;;;;9.07;2.83;;;;;;;20.59;65.14;99790.72;8358563;28;20182;-68
2023/07/23 05:01:50;;;;;;;5.47;2.53;;;;;;;20.60;65.13;99798.75;8356775;28;20067;-67
2023/07/23 05:05:52;;;;;;;3.63;2.20;;;;;;;20.60;65.40;99792.41;8357301;28;20080;-66
2023/07/23 05:09:52;;;;;;;4.65;2.15;;;;;;;20.60;65.04;99781.41;8360247;28;20036;-68
2023/07/23 05:13:53;;;;;;;4.55;2.30;;;;;;;20.60;65.20;99784.16;8363322;28;20047;-68
2023/07/23 05:17:53;;;;;;;4.78;2.17;;;;;;;20.63;64.99;99787.31;8355259;28;20052;-68
2023/07/23 05:21:54;;;;;;;5.05;2.05;;;;;;;20.73;64.75;99792.28;8362082;28;20060;-68
2023/07/23 05:25:56;;;;;;;6.35;2.20;;;;;;;20.78;64.38;99781.50;8358555;28;20530;-67
2023/07/23 05:29:57;;;;;;;3.42;1.98;;;;;;;20.86;63.84;99787.53;8355984;28;20042;-68
2023/07/23 05:33:57;;;;;;;4.55;2.30;;;;;;;20.97;63.80;99788.75;8354910;28;20037;-68
2023/07/23 05:37:58;;;;;;;3.47;1.80;;;;;;;21.06;62.89;99787.41;8358450;28;20044;-68
2023/07/23 05:41:58;;;;;;;5.43;2.17;;;;;;;21.13;62.89;99788.16;8357039;28;20040;-68
2023/07/23 05:45:59;;;;;;;2.95;1.90;;;;;;;21.12;63.17;99786.50;8355950;28;20044;-68
2023/07/23 05:49:59;;;;;;;3.05;1.90;;;;;;;21.11;63.30;99784.81;8357006;28;20494;-68
2023/07/23 05:54:00;;;;;;;5.25;2.38;;;;;;;21.09;63.28;99792.44;8357178;28;20127;-66
2023/07/23 05:58:00;;;;;;;3.50;2.38;;;;;;;21.16;63.20;99790.47;8355701;28;20437;-66
2023/07/23 06:02:01;;;;;;;3.13;2.17;;;;;;;21.19;63.23;99790.88;8353773;28;20075;-66
2023/07/23 06:06:01;;;;;;;8.45;1.88;;;;;;;21.24;63.10;99801.19;8353549;28;20075;-65
2023/07/23 06:10:03;;;;;;;5.43;2.05;;;;;;;21.19;63.22;99796.34;8358617;28;20503;-66
2023/07/23 06:14:03;;;;;;;2.85;1.90;;;;;;;21.18;62.99;99793.84;8357149;28;20041;-66
2023/07/23 06:18:04;;;;;;;4.82;2.13;;;;;;;21.16;63.50;99793.22;8354574;28;20386;-66
2023/07/23 06:22:04;;;;;;;7.20;2.50;;;;;;;21.17;62.62;99789.41;8357588;28;20145;-65
2023/07/23 06:26:05;;;;;;;4.75;2.30;;;;;;;21.19;62.84;99781.75;8355614;28;20051;-66
2023/07/23 06:30:06;;;;;;;5.15;1.98;;;;;;;21.20;62.73;99795.28;8353458;28;20036;-66
2023/07/23 06:34:09;;;;;;;4.22;2.38;;;;;;;21.18;63.10;99788.34;8354953;28;20033;-66
2023/07/23 06:38:09;;;;;;;2.75;1.90;;;;;;;21.18;62.78;99788.34;8356583;28;20613;-66
2023/07/23 06:42:10;;;;;;;4.57;2.13;;;;;;;21.13;63.36;99791.75;8356044;28;20501;-65
2023/07/23 06:46:16;;;;;;;2.95;2.03;;;;;;;21.16;63.30;99793.22;8354576;28;20042;-65
2023/07/23 06:50:18;;;;;;;5.43;2.13;;;;;;;21.20;62.99;99808.22;8355328;28;20039;-65
2023/07/23 06:54:18;;;;;;;3.63;1.80;;;;;;;21.13;64.01;99812.91;8354334;28;20033;-66
2023/07/23 06:58:18;;;;;;;6.55;1.95;;;;;;;20.92;66.63;99813.31;8356586;28;20067;-67
2023/07/23 07:02:19;;;;;;;5.97;2.80;;;;;;;20.59;69.50;99804.47;8354699;28;20045;-67
2023/07/23 07:06:19;;;;;;;4.05;2.20;;;;;;;20.35;70.56;99799.75;8349587;28;20110;-67
2023/07/23 07:10:20;;;;;;;8.82;2.20;;;;;;;20.35;70.47;99799.75;8358082;28;20047;-67
2023/07/23 07:14:21;;;;;;;2.60;2.00;;;;;;;20.48;69.03;99794.19;8352922;28;20398;-66
2023/07/23 07:18:22;;;;;;;4.20;2.38;;;;;;;20.79;67.11;99805.13;8354513;28;20059;-68
2023/07/23 07:22:22;;;;;;;3.80;1.85;;;;;;;20.99;65.32;99797.63;8353648;28;20529;-67
2023/07/23 07:26:23;;;;;;;4.60;1.90;;;;;;;21.07;64.91;99805.56;8354463;28;20123;-67
2023/07/23 07:30:23;;;;;;;4.82;1.92;;;;;;;21.14;64.85;99798.13;8354387;28;20044;-67
2023/07/23 07:34:24;;;;;;;3.08;1.92;;;;;;;21.16;66.41;99809.72;8354580;28;20033;-67
2023/07/23 07:38:26;;;;;;;2.97;2.25;;;;;;;20.83;71.20;99809.16;8355959;28;20398;-67
2023/07/23 07:42:26;;;;;;;3.78;2.13;;;;;;;20.57;73.00;99812.06;8359463;28;20124;-68
2023/07/23 07:46:27;;;;;;;3.92;2.28;;;;;;;20.53;71.45;99814.44;8362267;28;20040;-67
2023/07/23 07:50:27;;;;;;;3.80;1.60;;;;;;;20.78;68.21;99817.22;8360722;28;20051;-67
2023/07/23 07:54:28;;;;;;;3.83;1.75;;;;;;;21.04;67.28;99817.00;8357805;28;20043;-60
2023/07/23 07:58:29;;;;;;;3.22;1.55;;;;;;;21.05;66.80;99813.22;8381023;28;20037;-60
2023/07/23 08:02:30;;;;;;;2.92;1.55;;;;;;;21.18;66.47;99813.09;8358107;28;20413;-61
2023/07/23 08:06:32;;;;;;;2.85;1.52;;;;;;;21.14;66.73;99815.44;8359153;28;20040;-61
2023/07/23 08:10:34;;;;;;;5.28;1.83;;;;;;;21.21;67.01;99818.97;8360927;28;20032;-59
2023/07/23 08:14:37;;;;;;;4.53;2.22;;;;;;;21.27;67.90;99828.22;8355205;28;20611;-59
2023/07/23 08:18:38;;;;;;;4.60;1.67;;;;;;;21.28;68.16;99832.66;8373571;28;20128;-60
2023/07/23 08:22:39;;;;;;;3.80;1.77;;;;;;;21.21;68.56;99829.13;8376071;28;20046;-60
2023/07/23 08:26:41;;;;;;;3.45;1.60;;;;;;;21.17;70.60;99825.16;8345440;28;20454;-60
2023/07/23 08:30:41;;;;;;;3.50;1.83;;;;;;;21.05;72.65;99837.94;8343708;28;20037;-60
2023/07/23 08:34:43;;;;;;;2.13;1.63;;;;;;;21.00;74.32;99832.28;8342750;28;20059;-60
2023/07/23 08:38:44;;;;;;;4.22;1.98;;;;;;;20.86;75.63;99837.00;8346237;28;20449;-60
2023/07/23 08:43:17;;;;;;;5.97;1.77;;;;;;;20.96;74.48;99834.66;8343614;28;20048;-60
2023/07/23 08:47:21;;;;;;;3.63;1.58;;;;;;;21.17;74.25;99827.91;8339560;28;20029;-59
2023/07/23 08:51:26;;;;;;;2.75;1.45;;;;;;;21.25;73.56;99830.34;8346135;28;20068;-59
2023/07/23 08:55:27;;;;;;;1.92;1.48;;;;;;;21.45;73.26;99811.75;8343270;28;20051;-60
2023/07/23 08:59:27;;;;;;;3.17;1.50;;;;;;;21.58;72.56;99822.59;8345750;28;20044;-60
2023/07/23 09:03:30;;;;;;;3.88;1.23;;;;;;;21.82;72.13;99827.25;8345404;28;20033;-59
2023/07/23 09:07:34;;;;;;;3.75;1.48;;;;;;;21.93;72.27;99820.13;8347846;28;20029;-59
2023/07/23 09:11:35;;;;;;;3.40;1.40;;;;;;;21.87;72.33;99829.31;8346753;28;20033;-59
2023/07/23 09:15:36;;;;;;;2.30;1.67;;;;;;;22.07;72.71;99827.97;8343410;28;20033;-60
2023/07/23 09:19:36;;;;;;;2.65;1.83;;;;;;;21.77;74.48;99835.34;8341308;28;20549;-59
2023/07/23 09:23:37;;;;;;;4.93;1.50;;;;;;;21.41;78.22;99838.03;8371070;28;20037;-60
2023/07/23 09:27:40;;;;;;;2.72;1.70;;;;;;;21.25;77.20;99841.34;8344672;28;20097;-59
2023/07/23 09:31:44;;;;;;;2.90;1.83;;;;;;;21.37;76.57;99839.53;8343382;28;20316;-60
2023/07/23 09:35:44;;;;;;;2.27;1.60;;;;;;;21.37;76.52;99839.53;8344518;28;20037;-60
2023/07/23 09:39:44;;;;;;;5.85;2.03;;;;;;;21.14;82.31;99855.84;8345170;28;20283;-60
2023/07/23 09:43:45;;;;;;;10.23;1.90;;;;;;;20.62;88.52;99861.72;8359553;28;20037;-62
2023/07/23 09:47:46;;;;;;;3.95;2.03;;;;;;;20.30;93.29;99862.72;8358980;28;20044;-60
2023/07/23 09:51:51;;;;;;;2.45;1.67;;;;;;;20.07;95.51;99874.19;8340137;28;20041;-60
2023/07/23 09:55:52;;;;;;;4.97;1.98;;;;;;;19.95;95.74;99869.63;8344430;28;20416;-60
2023/07/23 09:59:56;;;;;;;3.33;2.17;;;;;;;19.85;95.88;99874.72;8345295;28;20079;-60
2023/07/23 10:03:58;;;;;;;4.53;1.60;;;;;;;19.89;96.31;99873.22;8347160;28;20048;-60
2023/07/23 10:08:03;;;;;;;3.38;1.90;;;;;;;20.08;96.95;99869.56;8343913;28;20517;-60
2023/07/23 10:12:04;;;;;;;3.38;1.83;;;;;;;20.31;95.18;99864.44;8351896;28;20128;-60
2023/07/23 10:16:09;;;;;;;2.55;1.70;;;;;;;20.57;91.31;99864.25;8341683;28;20455;-60
2023/07/23 10:20:13;;;;;;;2.30;1.65;;;;;;;20.82;88.85;99867.91;8344068;28;20040;-60
2023/07/23 10:24:13;;;;;;;2.50;1.70;;;;;;;21.01;86.65;99855.94;8342307;28;20044;-60
2023/07/23 10:28:22;;;;;;;3.72;1.63;;;;;;;21.20;86.07;99865.94;8347476;28;20116;-60
2023/07/23 10:32:26;;;;;;;3.78;1.48;;;;;;;21.40;84.59;99869.34;8344372;28;20338;-60
2023/07/23 10:36:27;;;;;;;;;;;;;;;21.54;84.37;99879.16;8344808;28;20033;-60
2023/07/23 10:40:43;;;;;;;2.05;1.35;;;;;;;21.55;81.90;99869.84;8343587;28;19975;-60
2023/07/23 10:44:46;;;;;;;2.10;1.40;;;;;;;21.58;82.13;99855.63;8339218;28;20056;-60
2023/07/23 10:48:50;;;;;;;1.85;1.10;;;;;;;21.57;80.99;99867.72;8334938;28;20052;-60
2023/07/23 10:52:58;;;;;;;2.03;1.23;;;;;;;21.54;80.78;99857.16;8344697;28;20086;-60
2023/07/23 10:56:58;;;;;;;2.65;1.17;;;;;;;21.49;80.97;99859.72;8345892;28;20063;-60
2023/07/23 11:00:59;;;;;;;3.47;1.10;;;;;;;21.59;80.57;99864.72;8341545;28;20048;-60
2023/07/23 11:05:01;;;;;;;1.85;1.00;;;;;;;21.67;80.73;99867.16;8341005;28;20056;-60
2023/07/23 11:09:08;;;;;;;2.63;1.30;;;;;;;21.80;80.60;99853.31;8341915;28;20094;-60
2023/07/23 11:13:08;;;;;;;1.70;0.73;;;;;;;21.91;79.37;99864.41;8347061;28;20501;-60
2023/07/23 11:17:09;;;;;;;2.38;1.00;;;;;;;22.05;79.02;99863.16;8345753;28;20447;-60
2023/07/23 11:21:14;;;;;;;1.27;0.85;;;;;;;22.22;77.99;99871.63;8347467;28;20196;-59
2023/07/23 11:25:15;;;;;;;3.42;1.15;;;;;;;22.37;77.28;99864.66;8346919;28;20048;-58
2023/07/23 11:29:16;;;;;;;1.98;0.88;;;;;;;22.60;76.39;99864.78;8335723;28;20507;-59
2023/07/23 11:33:17;;;;;;;1.33;0.82;;;;;;;22.64;75.83;99857.75;8347109;28;20041;-58
2023/07/23 11:37:18;;;;;;;1.40;0.63;;;;;;;22.99;74.26;99857.81;8347305;28;20040;-59
2023/07/23 11:41:18;;;;;;;1.23;0.80;;;;;;;23.22;74.49;99846.84;8347438;28;20037;-59
2023/07/23 11:45:19;;;;;;;0.65;0.65;;;;;;;23.33;73.99;99847.97;8343710;28;20172;-58
2023/07/23 11:49:20;;;;;;;1.50;0.90;;;;;;;23.38;73.38;99856.34;8346588;28;20037;-60
2023/07/23 11:53:37;;;;;;;1.17;0.70;;;;;;;23.50;73.29;99854.41;8348380;28;20068;-62
2023/07/23 11:57:38;;;;;;;2.38;0.80;;;;;;;23.67;72.73;99855.38;8346620;28;20527;-60
2023/07/23 12:01:39;;;;;;;2.20;0.90;;;;;;;23.86;71.95;99854.16;8345728;28;20420;-60
2023/07/23 12:05:40;;;;;;;1.50;0.82;;;;;;;23.94;71.45;99849.09;8345595;28;20049;-60
2023/07/23 12:09:40;;;;;;;1.27;0.95;;;;;;;23.80;71.60;99857.88;8346069;28;20037;-60
2023/07/23 12:13:43;;;;;;;1.20;0.80;;;;;;;23.75;71.70;99846.75;8347621;28;20066;-60
2023/07/23 12:17:45;;;;;;;1.67;0.52;;;;;;;23.86;72.07;99856.91;8344853;28;20077;-60
2023/07/23 12:21:47;;;;;;;1.17;0.60;;;;;;;23.76;71.83;99851.19;8344829;28;20045;-61
2023/07/23 12:25:48;;;;;;;1.23;0.50;;;;;;;24.28;71.46;99852.91;8344730;28;20452;-60
2023/07/23 12:29:50;;;;;;;0.70;0.45;;;;;;;24.74;69.10;99847.19;8342312;28;20050;-60
2023/07/23 12:33:50;;;;;;;1.08;0.50;;;;;;;24.90;69.20;99835.31;8347680;28;20033;-60
2023/07/23 12:37:51;;;;;;;1.40;0.50;;;;;;;24.93;68.22;99851.41;8345170;28;20147;-60
2023/07/23 12:41:51;;;;;;;2.63;0.70;;;;;;;24.72;68.88;99832.78;8344462;28;20331;-60
2023/07/23 12:45:52;;;;;;;0.65;0.40;;;;;;;24.64;69.94;99847.00;8341477;28;20144;-60
2023/07/23 12:49:56;;;;;;;2.22;0.70;;;;;;;24.38;70.26;99842.03;8344671;28;20037;-60
2023/07/23 12:53:57;;;;;;;1.35;0.90;;;;;;;24.50;69.78;99840.06;8346405;28;20037;-60
2023/07/23 12:57:57;;;;;;;1.33;0.80;;;;;;;24.99;68.77;99834.66;8343794;28;20033;-59
2023/07/23 13:01:58;;;;;;;1.83;1.15;;;;;;;25.13;68.33;99828.78;8343404;28;20053;-59
2023/07/23 13:05:58;;;;;;;0.60;0.55;;;;;;;25.18;68.76;99831.66;8345262;28;20080;-59
2023/07/23 13:09:59;;;;;;;0.47;0.28;;;;;;;25.39;67.68;99828.97;8347181;28;20049;-59
2023/07/23 13:13:59;;;;;;;1.25;0.50;;;;;;;25.27;68.38;99822.66;8341845;28;20037;-59
2023/07/23 13:18:01;;;;;;;1.75;0.70;;;;;;;25.40;68.20;99819.56;8343079;28;20064;-59
2023/07/23 13:22:01;;;;;;;0.57;0.45;;;;;;;25.31;67.98;99826.59;8343472;28;20050;-59
2023/07/23 13:26:02;;;;;;;0.68;0.60;;;;;;;25.10;68.85;99819.09;8340679;28;20087;-59
2023/07/23 13:30:03;;;;;;;0.95;0.70;;;;;;;25.16;68.94;99818.06;8344264;28;20033;-59
2023/07/23 13:34:03;;;;;;;1.00;0.80;;;;;;;25.42;68.87;99822.94;8342840;28;20065;-59
2023/07/23 13:38:04;;;;;;;0.82;0.52;;;;;;;25.58;68.00;99822.06;8342405;28;20529;-59
2023/07/23 13:42:04;;;;;;;0.60;0.40;;;;;;;25.84;67.32;99807.50;8343046;28;20079;-59
2023/07/23 13:46:05;;;;;;;1.50;0.40;;;;;;;25.84;67.68;99821.34;8340799;28;20052;-59
2023/07/23 13:50:06;;;;;;;1.00;0.40;;;;;;;25.66;67.50;99823.56;8345083;28;20057;-60
2023/07/23 13:54:06;;;;;;;0.50;0.30;;;;;;;25.52;68.36;99823.09;8346236;28;20507;-59
2023/07/23 13:58:06;;;;;;;0.52;0.40;;;;;;;25.37;68.79;99828.38;8338387;28;20044;-60
2023/07/23 14:02:07;;;;;;;0.70;0.50;;;;;;;25.43;69.02;99816.31;8340411;28;20132;-60
2023/07/23 14:06:07;;;;;;;1.17;0.50;;;;;;;25.42;69.43;99820.16;8342891;28;20053;-60
2023/07/23 14:10:08;;;;;;;0.77;0.30;;;;;;;25.22;69.39;99833.63;8348026;28;20550;-60
2023/07/23 14:14:10;;;;;;;0.47;0.40;;;;;;;24.70;70.79;99830.25;8342855;28;20340;-59
2023/07/23 14:18:11;;;;;;;5.60;0.70;;;;;;;24.53;71.42;99836.81;8339568;28;20052;-60
2023/07/23 14:22:11;;;;;;;1.98;0.80;;;;;;;24.28;72.33;99828.84;8339787;28;20124;-58
2023/07/23 14:26:12;;;;;;;1.88;0.70;;;;;;;24.36;72.33;99822.09;8339428;28;20099;-59
2023/07/23 14:30:12;;;;;;;1.92;0.90;;;;;;;24.53;72.34;99828.53;8343091;28;20037;-59
2023/07/23 14:34:13;;;;;;;3.42;1.05;;;;;;;24.52;72.00;99826.84;8336259;28;20041;-59
2023/07/23 14:38:13;;;;;;;1.38;0.80;;;;;;;24.31;71.84;99819.25;8341415;28;20116;-58
2023/07/23 14:42:14;;;;;;;1.02;0.85;;;;;;;24.23;72.37;99825.16;8341756;28;20499;-59
2023/07/23 14:46:14;;;;;;;1.38;0.77;;;;;;;24.23;72.73;99825.16;8336911;28;20137;-58
2023/07/23 14:50:15;;;;;;;0.95;0.85;;;;;;;24.19;72.84;99829.50;8346199;28;20045;-59
2023/07/23 14:54:16;;;;;;;1.40;0.80;;;;;;;24.19;72.57;99826.75;8353613;28;20522;-61
2023/07/23 14:58:16;;;;;;;1.45;0.70;;;;;;;24.25;72.35;99820.22;8346057;28;20036;-58
2023/07/23 15:02:16;;;;;;;1.52;0.90;;;;;;;24.39;71.52;99821.59;8348728;28;20044;-58
2023/07/23 15:06:17;;;;;;;1.05;0.75;;;;;;;24.36;71.22;99813.81;8349322;28;20037;-57
2023/07/23 15:10:17;;;;;;;0.90;0.80;;;;;;;24.55;71.31;99807.00;8349329;28;20033;-58
2023/07/23 15:14:18;;;;;;;1.33;0.80;;;;;;;24.79;70.65;99803.03;8347210;28;20068;-57
2023/07/23 15:18:19;;;;;;;1.38;1.00;;;;;;;24.93;70.08;99790.56;8346071;28;20037;-60
2023/07/23 15:22:26;;;;;;;0.95;0.75;;;;;;;25.19;69.43;99789.06;8344332;28;20568;-57
2023/07/23 15:26:27;;;;;;;1.02;0.85;;;;;;;25.31;69.15;99787.84;8351059;28;20107;-57
2023/07/23 15:30:28;;;;;;;1.30;0.93;;;;;;;25.26;68.95;99787.78;8347665;28;20038;-57
2023/07/23 15:34:29;;;;;;;1.15;1.02;;;;;;;25.26;69.40;99790.56;8344634;28;20168;-57
2023/07/23 15:38:29;;;;;;;1.10;0.68;;;;;;;25.18;69.67;99782.66;8348676;28;20064;-57
2023/07/23 15:42:30;;;;;;;1.63;0.82;;;;;;;25.14;69.68;99783.44;8347057;28;20064;-57
2023/07/23 15:46:30;;;;;;;2.47;1.00;;;;;;;25.09;69.99;99773.13;8342247;28;20377;-61
2023/07/23 15:50:30;;;;;;;1.58;0.95;;;;;;;25.14;70.58;99773.22;8353235;28;20131;-60
2023/07/23 15:54:31;;;;;;;1.88;0.77;;;;;;;25.14;70.09;99772.38;8348665;28;20059;-59
2023/07/23 15:58:32;;;;;;;2.72;0.80;;;;;;;25.32;69.61;99777.66;8345116;28;20044;-60
2023/07/23 16:02:32;;;;;;;1.55;0.68;;;;;;;25.34;69.35;99776.31;8345834;28;20055;-60
2023/07/23 16:06:33;;;;;;;1.98;1.05;;;;;;;25.29;70.63;99773.44;8348193;28;20041;-60
2023/07/23 16:10:33;;;;;;;0.85;0.70;;;;;;;25.32;70.19;99764.66;8345076;28;20071;-60
2023/07/23 16:14:34;;;;;;;1.20;0.85;;;;;;;25.51;70.04;99759.66;8345461;28;20096;-60
2023/07/23 16:18:35;;;;;;;1.10;0.60;;;;;;;25.58;69.10;99761.16;8344411;28;23898;-60
2023/07/23 16:22:36;;;;;;;0.85;0.57;;;;;;;25.48;68.90;99758.25;8343697;28;20122;-60
2023/07/23 16:26:36;;;;;;;1.05;0.60;;;;;;;25.23;69.88;99757.84;8344964;28;20060;-60
2023/07/23 16:30:36;;;;;;;1.58;0.63;;;;;;;25.07;70.43;99752.34;8345434;28;20518;-60
2023/07/23 16:34:37;;;;;;;1.52;0.60;;;;;;;24.98;70.69;99749.16;8331969;28;20317;-60
2023/07/23 16:38:41;;;;;;;1.63;0.73;;;;;;;24.79;70.95;99742.19;8326986;28;20753;-60
2023/07/23 16:42:42;;;;;;;1.88;0.70;;;;;;;24.59;71.67;99739.91;8326774;28;20116;-60
2023/07/23 16:46:42;;;;;;;1.38;0.50;;;;;;;24.62;71.88;99735.81;8328239;28;20052;-61
2023/07/23 16:50:45;;;;;;;1.38;0.50;;;;;;;24.59;71.93;99741.84;8336000;28;20052;-60
2023/07/23 16:54:47;;;;;;;0.70;0.40;;;;;;;24.52;72.31;99738.41;8319020;28;20068;-60
2023/07/23 16:58:48;;;;;;;0.50;0.40;;;;;;;24.42;72.63;99732.66;8341253;28;20044;-62
2023/07/23 17:02:48;;;;;;;2.38;0.43;;;;;;;24.28;73.34;99732.13;8343834;28;20267;-61
2023/07/23 17:06:49;;;;;;;0.70;0.40;;;;;;;24.25;73.55;99729.91;8344187;28;20546;-61
2023/07/23 17:10:49;;;;;;;0.40;0.40;;;;;;;24.23;73.91;99734.81;8345444;28;20052;-61
2023/07/23 17:14:52;;;;;;;0.63;0.50;;;;;;;24.19;74.24;99727.28;8343308;28;20451;-61
2023/07/23 17:18:53;;;;;;;2.08;0.60;;;;;;;24.11;74.41;99722.13;8343173;28;20044;-61
2023/07/23 17:22:53;;;;;;;1.85;0.52;;;;;;;24.08;74.93;99731.78;8345206;28;20087;-61
2023/07/23 17:26:54;;;;;;;0.80;0.40;;;;;;;24.03;75.56;99734.44;8344019;28;20049;-61
2023/07/23 17:30:58;;;;;;;1.02;0.60;;;;;;;23.90;76.52;99728.31;8372271;28;20366;-61
2023/07/23 17:34:58;;;;;;;0.45;0.40;;;;;;;23.83;78.15;99733.16;8330436;28;20403;-61
2023/07/23 17:38:58;;;;;;;2.88;0.40;;;;;;;23.47;82.33;99739.00;8346985;28;20037;-61
2023/07/23 17:42:59;;;;;;;3.03;0.38;;;;;;;23.20;85.15;99731.22;8351901;28;20519;-61
2023/07/23 17:47:03;;;;;;;0.67;0.30;;;;;;;23.06;86.87;99737.22;8349172;28;20050;-61
2023/07/23 17:51:03;;;;;;;0.73;0.30;;;;;;;23.01;88.30;99739.84;8351705;28;20642;-61
2023/07/23 17:55:04;;;;;;;1.33;0.63;;;;;;;23.02;87.82;99742.38;8341947;28;20090;-62
2023/07/23 17:59:05;;;;;;;0.40;0.40;;;;;;;23.09;87.11;99737.56;8350566;28;20045;-61
2023/07/23 18:03:05;;;;;;;0.57;0.47;;;;;;;23.06;87.90;99732.53;8350829;28;20047;-61
2023/07/23 18:07:06;;;;;;;0.50;0.40;;;;;;;22.95;90.45;99736.16;8382886;28;20406;-61
2023/07/23 18:11:07;;;;;;;1.95;0.70;;;;;;;22.61;93.85;99734.19;8351569;28;20056;-61
2023/07/23 18:15:08;;;;;;;1.50;0.50;;;;;;;22.43;94.96;99731.50;8350846;28;20036;-61
2023/07/23 18:19:08;;;;;;;0.98;0.63;;;;;;;22.35;98.94;99729.06;8352021;28;20055;-61
2023/07/23 18:23:09;;;;;;;0.80;0.52;;;;;;;22.13;100.00;99725.16;8351396;28;20032;-61
2023/07/23 18:27:10;;;;;;;2.72;0.43;;;;;;;22.07;100.00;99726.09;8350358;28;20041;-61
2023/07/23 18:31:11;;;;;;;0.70;0.60;;;;;;;21.83;100.00;99724.31;8348995;28;20032;-61
2023/07/23 18:35:11;;;;;;;3.13;1.00;;;;;;;21.71;100.00;99726.16;8350095;28;20224;-61
2023/07/23 18:39:12;;;;;;;0.77;0.60;;;;;;;21.54;100.00;99716.84;8346563;28;20094;-61
2023/07/23 18:43:12;;;;;;;0.68;0.50;;;;;;;21.31;100.00;99724.94;8347885;28;20130;-61
2023/07/23 18:47:15;;;;;;;1.25;0.85;;;;;;;21.12;100.00;99717.75;8346108;28;20056;-61
2023/07/23 18:51:16;;;;;;;1.90;1.08;;;;;;;20.97;100.00;99722.78;8345180;28;20037;-62
2023/07/23 18:55:16;;;;;;;2.13;1.02;;;;;;;20.81;100.00;99717.84;8347880;28;20047;-62